sensor_id;sensor_type;location;lat;lon;timestamp;pressure;altitude;pressure_sealevel;temperature;humidity
56174;BME280;42058;52.308;20.924;2023-06-10T01:06:24;100615.54;;;20.47;49.64
56174;BME280;42058;52.308;20.924;2023-06-10T01:11:38;100615.07;;;20.37;50.06
56174;BME280;42058;52.308;20.924;2023-06-10T01:14:09;100617.63;;;20.34;49.88
56174;BME280;42058;52.308;20.924;2023-06-10T01:16:38;100622.34;;;20.30;49.97
56174;BME280;42058;52.308;20.924;2023-06-10T01:19:11;100623.10;;;20.26;50.05
56174;BME280;42058;52.308;20.924;2023-06-10T01:21:40;100619.61;;;20.22;50.10
56174;BME280;42058;52.308;20.924;2023-06-10T01:24:08;100617.69;;;20.19;50.16
56174;BME280;42058;52.308;20.924;2023-06-10T01:26:40;100619.16;;;20.15;49.88
56174;BME280;42058;52.308;20.924;2023-06-10T01:29:14;100617.76;;;20.12;49.86
56174;BME280;42058;52.308;20.924;2023-06-10T01:34:17;100623.75;;;20.05;49.59
56174;BME280;42058;52.308;20.924;2023-06-10T01:36:48;100618.38;;;20.00;49.71
56174;BME280;42058;52.308;20.924;2023-06-10T01:39:18;100619.55;;;19.95;49.70
56174;BME280;42058;52.308;20.924;2023-06-10T01:41:48;100628.37;;;19.90;50.00
56174;BME280;42058;52.308;20.924;2023-06-10T01:44:22;100629.46;;;19.87;50.04
56174;BME280;42058;52.308;20.924;2023-06-10T01:46:52;100632.89;;;19.84;50.19
56174;BME280;42058;52.308;20.924;2023-06-10T01:49:20;100634.48;;;19.81;50.28
56174;BME280;42058;52.308;20.924;2023-06-10T01:51:53;100641.11;;;19.77;50.30
56174;BME280;42058;52.308;20.924;2023-06-10T01:54:21;100641.29;;;19.74;50.45
56174;BME280;42058;52.308;20.924;2023-06-10T01:56:51;100644.34;;;19.71;50.20
56174;BME280;42058;52.308;20.924;2023-06-10T01:59:19;100641.34;;;19.67;50.50
56174;BME280;42058;52.308;20.924;2023-06-10T02:01:49;100644.00;;;19.64;50.48
56174;BME280;42058;52.308;20.924;2023-06-10T02:04:18;100647.38;;;19.61;50.41
56174;BME280;42058;52.308;20.924;2023-06-10T02:06:46;100649.86;;;19.58;50.60
56174;BME280;42058;52.308;20.924;2023-06-10T02:09:13;100648.08;;;19.56;50.71
56174;BME280;42058;52.308;20.924;2023-06-10T02:11:41;100653.79;;;19.53;51.12
56174;BME280;42058;52.308;20.924;2023-06-10T02:14:13;100656.52;;;19.49;50.93
56174;BME280;42058;52.308;20.924;2023-06-10T02:16:41;100658.80;;;19.46;50.73
56174;BME280;42058;52.308;20.924;2023-06-10T02:19:09;100659.87;;;19.43;51.03
56174;BME280;42058;52.308;20.924;2023-06-10T02:21:41;100659.80;;;19.38;51.17
56174;BME280;42058;52.308;20.924;2023-06-10T02:24:14;100655.84;;;19.33;51.33
56174;BME280;42058;52.308;20.924;2023-06-10T02:26:42;100660.86;;;19.29;51.52
56174;BME280;42058;52.308;20.924;2023-06-10T02:29:13;100659.11;;;19.26;51.55
56174;BME280;42058;52.308;20.924;2023-06-10T02:31:41;100664.09;;;19.23;51.88
56174;BME280;42058;52.308;20.924;2023-06-10T02:34:09;100668.35;;;19.20;51.82
56174;BME280;42058;52.308;20.924;2023-06-10T02:36:37;100670.50;;;19.17;52.17
56174;BME280;42058;52.308;20.924;2023-06-10T02:39:06;100674.76;;;19.14;52.42
56174;BME280;42058;52.308;20.924;2023-06-10T02:41:36;100677.71;;;19.12;52.48
56174;BME280;42058;52.308;20.924;2023-06-10T02:44:04;100677.96;;;19.11;52.74
56174;BME280;42058;52.308;20.924;2023-06-10T02:46:34;100684.84;;;19.09;52.84
56174;BME280;42058;52.308;20.924;2023-06-10T02:49:03;100686.05;;;19.06;52.84
56174;BME280;42058;52.308;20.924;2023-06-10T02:51:31;100681.44;;;19.03;53.04
56174;BME280;42058;52.308;20.924;2023-06-10T02:54:01;100683.72;;;19.00;52.98
56174;BME280;42058;52.308;20.924;2023-06-10T02:56:29;100688.11;;;18.98;53.19
56174;BME280;42058;52.308;20.924;2023-06-10T02:59:00;100688.38;;;18.96;53.20
56174;BME280;42058;52.308;20.924;2023-06-10T03:01:30;100691.31;;;18.95;53.28
56174;BME280;42058;52.308;20.924;2023-06-10T03:04:06;100688.54;;;18.94;53.36
56174;BME280;42058;52.308;20.924;2023-06-10T03:06:35;100690.10;;;18.91;53.56
56174;BME280;42058;52.308;20.924;2023-06-10T03:09:17;100690.12;;;18.88;53.81
56174;BME280;42058;52.308;20.924;2023-06-10T03:11:46;100689.08;;;18.87;53.76
56174;BME280;42058;52.308;20.924;2023-06-10T03:14:14;100693.57;;;18.87;53.87
56174;BME280;42058;52.308;20.924;2023-06-10T03:16:46;100691.94;;;18.84;53.97
56174;BME280;42058;52.308;20.924;2023-06-10T03:19:14;100692.15;;;18.83;54.23
56174;BME280;42058;52.308;20.924;2023-06-10T03:21:44;100694.13;;;18.83;54.42
56174;BME280;42058;52.308;20.924;2023-06-10T03:24:13;100693.77;;;18.83;54.53
56174;BME280;42058;52.308;20.924;2023-06-10T03:26:41;100693.78;;;18.82;54.59
56174;BME280;42058;52.308;20.924;2023-06-10T03:29:10;100698.18;;;18.83;54.93
56174;BME280;42058;52.308;20.924;2023-06-10T03:31:37;100701.20;;;18.83;54.59
56174;BME280;42058;52.308;20.924;2023-06-10T03:34:06;100701.05;;;18.83;54.88
56174;BME280;42058;52.308;20.924;2023-06-10T03:36:34;100704.23;;;18.83;55.09
56174;BME280;42058;52.308;20.924;2023-06-10T03:39:05;100702.07;;;18.84;55.14
56174;BME280;42058;52.308;20.924;2023-06-10T03:41:34;100701.70;;;18.84;55.08
56174;BME280;42058;52.308;20.924;2023-06-10T03:44:02;100702.04;;;18.85;55.23
56174;BME280;42058;52.308;20.924;2023-06-10T03:46:29;100704.48;;;18.86;55.10
56174;BME280;42058;52.308;20.924;2023-06-10T03:48:57;100711.66;;;18.87;55.30
56174;BME280;42058;52.308;20.924;2023-06-10T03:51:29;100711.60;;;18.88;55.12
56174;BME280;42058;52.308;20.924;2023-06-10T03:53:57;100713.86;;;18.90;55.26
56174;BME280;42058;52.308;20.924;2023-06-10T03:56:25;100718.39;;;18.91;55.11
56174;BME280;42058;52.308;20.924;2023-06-10T03:58:54;100718.64;;;18.93;54.92
56174;BME280;42058;52.308;20.924;2023-06-10T04:01:22;100715.23;;;18.94;55.05
56174;BME280;42058;52.308;20.924;2023-06-10T04:03:51;100721.67;;;18.95;55.17
56174;BME280;42058;52.308;20.924;2023-06-10T04:06:21;100718.96;;;18.96;55.27
56174;BME280;42058;52.308;20.924;2023-06-10T04:08:50;100717.23;;;18.98;55.27
56174;BME280;42058;52.308;20.924;2023-06-10T04:11:17;100716.40;;;19.00;55.35
56174;BME280;42058;52.308;20.924;2023-06-10T04:13:49;100714.16;;;19.03;55.62
56174;BME280;42058;52.308;20.924;2023-06-10T04:16:17;100713.08;;;19.06;55.60
56174;BME280;42058;52.308;20.924;2023-06-10T04:18:47;100715.91;;;19.09;56.08
56174;BME280;42058;52.308;20.924;2023-06-10T04:21:15;100718.02;;;19.13;56.03
56174;BME280;42058;52.308;20.924;2023-06-10T04:23:43;100721.92;;;19.16;55.67
56174;BME280;42058;52.308;20.924;2023-06-10T04:26:11;100729.14;;;19.20;55.83
56174;BME280;42058;52.308;20.924;2023-06-10T04:28:39;100728.19;;;19.25;56.33
56174;BME280;42058;52.308;20.924;2023-06-10T04:31:07;100729.71;;;19.29;55.91
56174;BME280;42058;52.308;20.924;2023-06-10T04:33:36;100722.73;;;19.33;55.88
56174;BME280;42058;52.308;20.924;2023-06-10T04:36:05;100723.39;;;19.37;56.06
56174;BME280;42058;52.308;20.924;2023-06-10T04:38:37;100725.73;;;19.43;55.89
56174;BME280;42058;52.308;20.924;2023-06-10T04:41:05;100723.91;;;19.46;55.71
56174;BME280;42058;52.308;20.924;2023-06-10T04:43:34;100720.80;;;19.51;55.49
56174;BME280;42058;52.308;20.924;2023-06-10T04:46:02;100723.86;;;19.56;55.23
56174;BME280;42058;52.308;20.924;2023-06-10T04:48:31;100723.40;;;19.61;55.03
56174;BME280;42058;52.308;20.924;2023-06-10T04:50:59;100724.05;;;19.68;55.63
56174;BME280;42058;52.308;20.924;2023-06-10T04:53:27;100722.45;;;19.74;55.78
56174;BME280;42058;52.308;20.924;2023-06-10T04:55:56;100723.49;;;19.81;55.30
56174;BME280;42058;52.308;20.924;2023-06-10T04:58:25;100728.38;;;19.88;55.68
56174;BME280;42058;52.308;20.924;2023-06-10T05:00:53;100731.20;;;19.95;55.55
56174;BME280;42058;52.308;20.924;2023-06-10T05:03:20;100729.73;;;20.01;55.33
56174;BME280;42058;52.308;20.924;2023-06-10T05:05:48;100733.74;;;20.08;55.41
56174;BME280;42058;52.308;20.924;2023-06-10T05:08:16;100732.61;;;20.15;55.42
56174;BME280;42058;52.308;20.924;2023-06-10T05:10:44;100733.88;;;20.24;55.36
56174;BME280;42058;52.308;20.924;2023-06-10T05:13:11;100737.13;;;20.31;55.26
56174;BME280;42058;52.308;20.924;2023-06-10T05:15:39;100735.56;;;20.39;54.84
56174;BME280;42058;52.308;20.924;2023-06-10T05:18:11;100738.77;;;20.48;54.96
56174;BME280;42058;52.308;20.924;2023-06-10T05:20:40;100737.84;;;20.57;55.13
56174;BME280;42058;52.308;20.924;2023-06-10T05:23:08;100737.59;;;20.67;55.17
56174;BME280;42058;52.308;20.924;2023-06-10T05:25:35;100736.42;;;20.77;55.20
56174;BME280;42058;52.308;20.924;2023-06-10T05:28:03;100735.95;;;20.87;55.01
56174;BME280;42058;52.308;20.924;2023-06-10T05:30:31;100738.13;;;20.98;54.55
56174;BME280;42058;52.308;20.924;2023-06-10T05:32:59;100740.52;;;21.07;54.72
56174;BME280;42058;52.308;20.924;2023-06-10T05:35:27;100744.50;;;21.18;54.65
56174;BME280;42058;52.308;20.924;2023-06-10T05:37:55;100744.26;;;21.26;54.78
56174;BME280;42058;52.308;20.924;2023-06-10T05:40:23;100743.37;;;21.35;54.38
56174;BME280;42058;52.308;20.924;2023-06-10T05:42:50;100744.65;;;21.42;54.43
56174;BME280;42058;52.308;20.924;2023-06-10T05:45:18;100745.48;;;21.49;53.85
56174;BME280;42058;52.308;20.924;2023-06-10T05:47:46;100744.61;;;21.57;53.67
56174;BME280;42058;52.308;20.924;2023-06-10T05:50:13;100745.63;;;21.65;53.48
56174;BME280;42058;52.308;20.924;2023-06-10T05:52:41;100747.04;;;21.73;53.32
56174;BME280;42058;52.308;20.924;2023-06-10T05:55:09;100749.45;;;21.83;53.50
56174;BME280;42058;52.308;20.924;2023-06-10T05:57:41;100747.70;;;21.92;53.12
56174;BME280;42058;52.308;20.924;2023-06-10T06:00:10;100742.65;;;22.03;53.10
56174;BME280;42058;52.308;20.924;2023-06-10T06:02:41;100744.86;;;22.16;52.89
56174;BME280;42058;52.308;20.924;2023-06-10T06:05:09;100745.75;;;22.26;52.63
56174;BME280;42058;52.308;20.924;2023-06-10T06:07:37;100745.38;;;22.36;52.25
56174;BME280;42058;52.308;20.924;2023-06-10T06:10:06;100744.08;;;22.47;52.56
56174;BME280;42058;52.308;20.924;2023-06-10T06:12:35;100746.09;;;22.57;52.03
56174;BME280;42058;52.308;20.924;2023-06-10T06:15:03;100744.52;;;22.66;51.65
56174;BME280;42058;52.308;20.924;2023-06-10T06:17:34;100747.47;;;22.75;51.60
56174;BME280;42058;52.308;20.924;2023-06-10T06:20:03;100745.46;;;22.85;51.84
56174;BME280;42058;52.308;20.924;2023-06-10T06:22:31;100742.88;;;22.96;51.36
56174;BME280;42058;52.308;20.924;2023-06-10T06:24:59;100743.52;;;23.07;50.92
56174;BME280;42058;52.308;20.924;2023-06-10T06:27:27;100745.95;;;23.18;50.56
56174;BME280;42058;52.308;20.924;2023-06-10T06:29:55;100746.23;;;23.29;50.29
56174;BME280;42058;52.308;20.924;2023-06-10T06:32:24;100740.85;;;23.41;50.20
56174;BME280;42058;52.308;20.924;2023-06-10T06:34:55;100744.42;;;23.55;50.14
56174;BME280;42058;52.308;20.924;2023-06-10T06:37:24;100745.70;;;23.69;50.14
56174;BME280;42058;52.308;20.924;2023-06-10T06:39:57;100752.20;;;23.82;50.03
56174;BME280;42058;52.308;20.924;2023-06-10T06:42:28;100748.11;;;23.91;49.47
56174;BME280;42058;52.308;20.924;2023-06-10T06:45:03;100748.18;;;23.97;49.36
56174;BME280;42058;52.308;20.924;2023-06-10T06:47:31;100751.59;;;24.07;49.60
56174;BME280;42058;52.308;20.924;2023-06-10T06:49:59;100752.11;;;24.18;49.47
56174;BME280;42058;52.308;20.924;2023-06-10T06:52:27;100752.44;;;24.30;49.36
56174;BME280;42058;52.308;20.924;2023-06-10T06:54:55;100756.67;;;24.44;49.02
56174;BME280;42058;52.308;20.924;2023-06-10T06:57:23;100757.26;;;24.58;48.46
56174;BME280;42058;52.308;20.924;2023-06-10T06:59:50;100752.06;;;24.69;48.10
56174;BME280;42058;52.308;20.924;2023-06-10T07:02:18;100752.86;;;24.79;47.82
56174;BME280;42058;52.308;20.924;2023-06-10T07:04:46;100755.34;;;24.88;47.50
56174;BME280;42058;52.308;20.924;2023-06-10T07:07:17;100751.78;;;25.01;47.47
56174;BME280;42058;52.308;20.924;2023-06-10T07:09:44;100760.15;;;25.15;47.90
56174;BME280;42058;52.308;20.924;2023-06-10T07:12:12;100754.84;;;25.27;47.51
56174;BME280;42058;52.308;20.924;2023-06-10T07:14:40;100754.66;;;25.38;47.40
56174;BME280;42058;52.308;20.924;2023-06-10T07:17:08;100755.71;;;25.49;47.39
56174;BME280;42058;52.308;20.924;2023-06-10T07:19:36;100761.02;;;25.59;47.35
56174;BME280;42058;52.308;20.924;2023-06-10T07:22:04;100753.58;;;25.70;47.00
56174;BME280;42058;52.308;20.924;2023-06-10T07:24:32;100754.05;;;25.81;46.86
56174;BME280;42058;52.308;20.924;2023-06-10T07:26:59;100755.74;;;25.94;46.74
56174;BME280;42058;52.308;20.924;2023-06-10T07:29:27;100763.02;;;26.05;46.52
56174;BME280;42058;52.308;20.924;2023-06-10T07:31:55;100761.48;;;26.15;45.96
56174;BME280;42058;52.308;20.924;2023-06-10T07:34:23;100768.98;;;26.21;45.76
56174;BME280;42058;52.308;20.924;2023-06-10T07:36:50;100765.67;;;26.26;45.33
56174;BME280;42058;52.308;20.924;2023-06-10T07:39:18;100766.50;;;26.32;45.42
56174;BME280;42058;52.308;20.924;2023-06-10T07:41:46;100766.27;;;26.38;45.52
56174;BME280;42058;52.308;20.924;2023-06-10T07:44:14;100766.42;;;26.49;45.33
56174;BME280;42058;52.308;20.924;2023-06-10T07:46:42;100765.33;;;26.57;45.33
56174;BME280;42058;52.308;20.924;2023-06-10T07:49:09;100770.65;;;26.69;45.42
56174;BME280;42058;52.308;20.924;2023-06-10T07:51:37;100772.56;;;26.79;44.77
56174;BME280;42058;52.308;20.924;2023-06-10T07:54:05;100770.75;;;26.85;44.00
56174;BME280;42058;52.308;20.924;2023-06-10T07:56:33;100770.06;;;26.89;44.11
56174;BME280;42058;52.308;20.924;2023-06-10T07:59:00;100770.88;;;26.96;44.62
56174;BME280;42058;52.308;20.924;2023-06-10T08:01:28;100773.61;;;27.01;44.84
56174;BME280;42058;52.308;20.924;2023-06-10T08:03:57;100773.70;;;27.05;45.09
56174;BME280;42058;52.308;20.924;2023-06-10T08:06:31;100779.37;;;27.10;45.01
56174;BME280;42058;52.308;20.924;2023-06-10T08:08:59;100779.39;;;27.15;44.95
56174;BME280;42058;52.308;20.924;2023-06-10T08:11:27;100778.50;;;27.23;44.73
56174;BME280;42058;52.308;20.924;2023-06-10T08:13:57;100779.02;;;27.30;44.54
56174;BME280;42058;52.308;20.924;2023-06-10T08:16:24;100781.52;;;27.36;44.18
56174;BME280;42058;52.308;20.924;2023-06-10T08:18:52;100779.92;;;27.44;44.08
56174;BME280;42058;52.308;20.924;2023-06-10T08:21:22;100783.48;;;27.54;44.20
56174;BME280;42058;52.308;20.924;2023-06-10T08:23:52;100783.17;;;27.59;43.47
56174;BME280;42058;52.308;20.924;2023-06-10T08:26:21;100783.52;;;27.65;43.39
56174;BME280;42058;52.308;20.924;2023-06-10T08:28:48;100790.36;;;27.73;43.56
56174;BME280;42058;52.308;20.924;2023-06-10T08:31:16;100789.67;;;27.78;42.96
56174;BME280;42058;52.308;20.924;2023-06-10T08:33:45;100792.00;;;27.84;42.92
56174;BME280;42058;52.308;20.924;2023-06-10T08:36:13;100788.06;;;27.90;42.57
56174;BME280;42058;52.308;20.924;2023-06-10T08:38:41;100785.15;;;27.98;42.03
56174;BME280;42058;52.308;20.924;2023-06-10T08:41:09;100786.69;;;28.08;42.41
56174;BME280;42058;52.308;20.924;2023-06-10T08:43:49;100789.84;;;28.17;42.17
56174;BME280;42058;52.308;20.924;2023-06-10T08:46:18;100791.66;;;28.27;42.00
56174;BME280;42058;52.308;20.924;2023-06-10T08:48:48;100788.61;;;28.35;41.77
56174;BME280;42058;52.308;20.924;2023-06-10T08:51:22;100796.73;;;28.45;41.49
56174;BME280;42058;52.308;20.924;2023-06-10T08:54:17;100795.60;;;28.51;41.37
56174;BME280;42058;52.308;20.924;2023-06-10T08:56:50;100788.22;;;28.59;41.11
56174;BME280;42058;52.308;20.924;2023-06-10T08:59:19;100791.07;;;28.67;40.89
56174;BME280;42058;52.308;20.924;2023-06-10T09:01:48;100786.87;;;28.76;40.58
56174;BME280;42058;52.308;20.924;2023-06-10T09:04:18;100794.75;;;28.86;40.33
56174;BME280;42058;52.308;20.924;2023-06-10T09:06:49;100795.42;;;28.94;39.99
56174;BME280;42058;52.308;20.924;2023-06-10T09:09:17;100793.68;;;29.03;39.06
56174;BME280;42058;52.308;20.924;2023-06-10T09:11:46;100792.80;;;29.11;39.14
56174;BME280;42058;52.308;20.924;2023-06-10T09:14:14;100801.94;;;29.20;38.85
56174;BME280;42058;52.308;20.924;2023-06-10T09:16:44;100796.01;;;29.27;38.87
56174;BME280;42058;52.308;20.924;2023-06-10T09:19:16;100797.62;;;29.36;38.85
56174;BME280;42058;52.308;20.924;2023-06-10T09:21:44;100798.02;;;29.43;37.94
56174;BME280;42058;52.308;20.924;2023-06-10T09:24:11;100800.02;;;29.46;37.61
56174;BME280;42058;52.308;20.924;2023-06-10T09:26:39;100800.56;;;29.46;37.18
56174;BME280;42058;52.308;20.924;2023-06-10T09:29:07;100793.59;;;29.42;36.87
56174;BME280;42058;52.308;20.924;2023-06-10T09:31:36;100795.17;;;29.41;36.99
56174;BME280;42058;52.308;20.924;2023-06-10T09:34:13;100800.02;;;29.43;36.95
56174;BME280;42058;52.308;20.924;2023-06-10T09:36:41;100799.41;;;29.47;37.14
56174;BME280;42058;52.308;20.924;2023-06-10T09:39:18;100799.69;;;29.50;36.94
56174;BME280;42058;52.308;20.924;2023-06-10T09:41:46;100799.77;;;29.50;36.47
56174;BME280;42058;52.308;20.924;2023-06-10T09:44:16;100796.92;;;29.50;36.66
56174;BME280;42058;52.308;20.924;2023-06-10T09:46:48;100796.54;;;29.52;36.47
56174;BME280;42058;52.308;20.924;2023-06-10T09:49:17;100801.41;;;29.52;36.19
56174;BME280;42058;52.308;20.924;2023-06-10T09:51:52;100794.95;;;29.54;35.44
56174;BME280;42058;52.308;20.924;2023-06-10T09:54:21;100797.16;;;29.55;34.58
56174;BME280;42058;52.308;20.924;2023-06-10T09:56:53;100793.52;;;29.57;34.81
56174;BME280;42058;52.308;20.924;2023-06-10T09:59:30;100791.08;;;29.61;34.65
56174;BME280;42058;52.308;20.924;2023-06-10T10:01:59;100791.54;;;29.64;34.65
56174;BME280;42058;52.308;20.924;2023-06-10T10:04:28;100784.84;;;29.67;34.33
56174;BME280;42058;52.308;20.924;2023-06-10T10:06:56;100781.52;;;29.74;34.38
56174;BME280;42058;52.308;20.924;2023-06-10T10:09:24;100788.16;;;29.78;34.67
56174;BME280;42058;52.308;20.924;2023-06-10T10:11:54;100782.27;;;29.83;34.72
56174;BME280;42058;52.308;20.924;2023-06-10T10:14:23;100780.63;;;29.86;34.63
56174;BME280;42058;52.308;20.924;2023-06-10T10:16:53;100779.95;;;29.89;34.93
56174;BME280;42058;52.308;20.924;2023-06-10T10:19:26;100771.34;;;29.94;34.65
56174;BME280;42058;52.308;20.924;2023-06-10T10:22:02;100767.77;;;29.98;34.85
56174;BME280;42058;52.308;20.924;2023-06-10T10:24:37;100767.81;;;30.05;34.49
56174;BME280;42058;52.308;20.924;2023-06-10T10:27:14;100763.73;;;30.10;34.61
56174;BME280;42058;52.308;20.924;2023-06-10T10:29:47;100761.61;;;30.18;34.78
56174;BME280;42058;52.308;20.924;2023-06-10T10:32:16;100760.80;;;30.22;34.03
56174;BME280;42058;52.308;20.924;2023-06-10T10:34:59;100756.46;;;30.25;33.58
56174;BME280;42058;52.308;20.924;2023-06-10T10:37:32;100758.48;;;30.30;33.93
56174;BME280;42058;52.308;20.924;2023-06-10T10:40:01;100763.83;;;30.37;33.99
56174;BME280;42058;52.308;20.924;2023-06-10T10:42:31;100762.98;;;30.44;34.02
56174;BME280;42058;52.308;20.924;2023-06-10T10:45:00;100764.00;;;30.51;33.60
56174;BME280;42058;52.308;20.924;2023-06-10T10:47:30;100754.30;;;30.57;33.78
56174;BME280;42058;52.308;20.924;2023-06-10T10:49:59;100761.27;;;30.64;33.59
56174;BME280;42058;52.308;20.924;2023-06-10T10:52:51;100759.36;;;30.72;33.11
56174;BME280;42058;52.308;20.924;2023-06-10T10:55:20;100757.89;;;30.77;32.17
56174;BME280;42058;52.308;20.924;2023-06-10T10:58:04;100760.96;;;30.82;32.08
56174;BME280;42058;52.308;20.924;2023-06-10T11:00:35;100757.10;;;30.86;32.03
56174;BME280;42058;52.308;20.924;2023-06-10T11:05:44;100752.97;;;30.93;31.80
56174;BME280;42058;52.308;20.924;2023-06-10T11:11:23;100746.96;;;30.98;31.38
56174;BME280;42058;52.308;20.924;2023-06-10T11:14:27;100749.39;;;31.01;30.95
56174;BME280;42058;52.308;20.924;2023-06-10T11:16:59;100749.00;;;31.05;30.65
56174;BME280;42058;52.308;20.924;2023-06-10T11:19:35;100750.63;;;31.10;30.40
56174;BME280;42058;52.308;20.924;2023-06-10T11:22:07;100750.98;;;31.15;30.15
56174;BME280;42058;52.308;20.924;2023-06-10T11:24:35;100750.08;;;31.20;30.14
56174;BME280;42058;52.308;20.924;2023-06-10T11:30:18;100750.48;;;31.28;30.11
56174;BME280;42058;52.308;20.924;2023-06-10T11:32:50;100749.88;;;31.37;30.63
56174;BME280;42058;52.308;20.924;2023-06-10T11:35:25;100747.92;;;31.46;30.56
56174;BME280;42058;52.308;20.924;2023-06-10T11:37:58;100741.39;;;31.55;30.04
56174;BME280;42058;52.308;20.924;2023-06-10T11:40:28;100738.73;;;31.61;30.06
56174;BME280;42058;52.308;20.924;2023-06-10T11:42:58;100737.10;;;31.69;30.51
56174;BME280;42058;52.308;20.924;2023-06-10T11:45:26;100735.94;;;31.78;30.60
56174;BME280;42058;52.308;20.924;2023-06-10T11:47:58;100734.42;;;31.88;30.74
56174;BME280;42058;52.308;20.924;2023-06-10T11:50:31;100730.63;;;31.97;30.82
56174;BME280;42058;52.308;20.924;2023-06-10T11:53:00;100735.48;;;31.99;30.29
56174;BME280;42058;52.308;20.924;2023-06-10T11:55:47;100734.20;;;32.05;30.60
56174;BME280;42058;52.308;20.924;2023-06-10T11:58:16;100729.08;;;32.12;30.29
56174;BME280;42058;52.308;20.924;2023-06-10T12:00:55;100729.61;;;32.20;30.65
56174;BME280;42058;52.308;20.924;2023-06-10T12:03:36;100727.34;;;32.19;30.48
56174;BME280;42058;52.308;20.924;2023-06-10T12:06:06;100726.19;;;32.23;31.00
56174;BME280;42058;52.308;20.924;2023-06-10T12:08:41;100732.27;;;32.28;31.00
56174;BME280;42058;52.308;20.924;2023-06-10T12:11:10;100726.36;;;32.32;31.16
56174;BME280;42058;52.308;20.924;2023-06-10T12:13:45;100723.28;;;32.38;30.95
56174;BME280;42058;52.308;20.924;2023-06-10T12:16:16;100729.04;;;32.47;30.99
56174;BME280;42058;52.308;20.924;2023-06-10T12:18:46;100726.40;;;32.49;30.23
56174;BME280;42058;52.308;20.924;2023-06-10T12:21:19;100728.52;;;32.48;30.19
56174;BME280;42058;52.308;20.924;2023-06-10T12:24:10;100728.58;;;32.50;29.67
56174;BME280;42058;52.308;20.924;2023-06-10T12:26:41;100720.36;;;32.53;29.57
56174;BME280;42058;52.308;20.924;2023-06-10T12:29:18;100720.34;;;32.59;29.82
56174;BME280;42058;52.308;20.924;2023-06-10T12:31:57;100714.19;;;32.67;29.16
56174;BME280;42058;52.308;20.924;2023-06-10T12:34:30;100717.27;;;32.72;29.48
56174;BME280;42058;52.308;20.924;2023-06-10T12:36:58;100712.39;;;32.78;28.87
56174;BME280;42058;52.308;20.924;2023-06-10T12:39:26;100709.61;;;32.83;28.63
56174;BME280;42058;52.308;20.924;2023-06-10T12:42:12;100706.27;;;32.89;28.62
56174;BME280;42058;52.308;20.924;2023-06-10T12:44:41;100705.88;;;32.95;28.33
56174;BME280;42058;52.308;20.924;2023-06-10T12:47:10;100706.98;;;33.03;28.19
56174;BME280;42058;52.308;20.924;2023-06-10T12:49:40;100704.73;;;33.11;28.03
56174;BME280;42058;52.308;20.924;2023-06-10T12:52:08;100710.35;;;33.18;27.92
56174;BME280;42058;52.308;20.924;2023-06-10T12:54:36;100707.54;;;33.20;27.50
56174;BME280;42058;52.308;20.924;2023-06-10T12:57:04;100704.61;;;33.25;27.94
56174;BME280;42058;52.308;20.924;2023-06-10T12:59:31;100698.53;;;33.30;27.94
56174;BME280;42058;52.308;20.924;2023-06-10T13:02:00;100700.64;;;33.35;28.22
56174;BME280;42058;52.308;20.924;2023-06-10T13:04:28;100692.56;;;33.42;28.40
56174;BME280;42058;52.308;20.924;2023-06-10T13:06:56;100693.48;;;33.45;28.19
56174;BME280;42058;52.308;20.924;2023-06-10T13:09:25;100696.20;;;33.43;27.83
56174;BME280;42058;52.308;20.924;2023-06-10T13:11:53;100685.41;;;33.45;27.97
56174;BME280;42058;52.308;20.924;2023-06-10T13:14:21;100688.66;;;33.50;27.80
56174;BME280;42058;52.308;20.924;2023-06-10T13:16:50;100685.32;;;33.53;27.59
56174;BME280;42058;52.308;20.924;2023-06-10T13:19:21;100686.61;;;33.58;27.92
56174;BME280;42058;52.308;20.924;2023-06-10T13:21:52;100687.19;;;33.62;28.28
56174;BME280;42058;52.308;20.924;2023-06-10T13:24:19;100679.23;;;33.67;28.48
56174;BME280;42058;52.308;20.924;2023-06-10T13:26:51;100670.85;;;33.70;28.42
56174;BME280;42058;52.308;20.924;2023-06-10T13:29:19;100672.89;;;33.69;28.85
56174;BME280;42058;52.308;20.924;2023-06-10T13:31:47;100674.95;;;33.67;28.63
56174;BME280;42058;52.308;20.924;2023-06-10T13:34:15;100682.39;;;33.66;28.85
56174;BME280;42058;52.308;20.924;2023-06-10T13:36:43;100684.60;;;33.58;28.69
56174;BME280;42058;52.308;20.924;2023-06-10T13:39:11;100690.11;;;33.45;29.12
56174;BME280;42058;52.308;20.924;2023-06-10T13:41:40;100687.33;;;33.32;29.16
56174;BME280;42058;52.308;20.924;2023-06-10T13:44:08;100683.63;;;33.22;29.54
56174;BME280;42058;52.308;20.924;2023-06-10T13:46:36;100684.31;;;33.11;29.62
56174;BME280;42058;52.308;20.924;2023-06-10T13:49:03;100672.65;;;33.01;29.50
56174;BME280;42058;52.308;20.924;2023-06-10T13:51:32;100681.91;;;32.92;30.13
56174;BME280;42058;52.308;20.924;2023-06-10T13:54:00;100686.59;;;32.80;29.71
56174;BME280;42058;52.308;20.924;2023-06-10T13:56:28;100690.33;;;32.65;30.09
56174;BME280;42058;52.308;20.924;2023-06-10T13:58:56;100685.20;;;32.49;29.91
56174;BME280;42058;52.308;20.924;2023-06-10T14:01:24;100683.03;;;32.35;30.07
56174;BME280;42058;52.308;20.924;2023-06-10T14:03:52;100675.70;;;32.21;30.52
56174;BME280;42058;52.308;20.924;2023-06-10T14:06:21;100684.22;;;32.09;30.97
56174;BME280;42058;52.308;20.924;2023-06-10T14:08:48;100681.70;;;31.97;31.14
56174;BME280;42058;52.308;20.924;2023-06-10T14:11:18;100686.93;;;31.86;31.33
56174;BME280;42058;52.308;20.924;2023-06-10T14:13:45;100686.21;;;31.73;30.77